Hagali, Minnesota
Current Conditions -  °F | °C
As of 1:13 PM on Friday 21 Nov 2014 (Local Time) from KBJI Reporting Station
Clear Clear  
Wind Chill: 17°   Ceiling: Unl
Heat Index: 28°   Visibility: 10mi
Dew Point: 18°   Wind: 15mph
Humidity: 66%   Direction: 190°S
Pressure: 29.77"   Gusts: 22mph
Location:  47.7615°N, 94.6741°W
Report Text: KBJI 211913Z AUTO 19013G19KT 10SM CLR M02/M08 A2977 RMK AO2 T10201076
Loading
Personal Weather Stations






























Interactive Weather Map New forecast layout! Learn more

10-Day Weather Forecast

Advertisements
Track Severe Weather on mobile